sensor_id;sensor_type;location;lat;lon;timestamp;pressure;altitude;pressure_sealevel;temperature;humidity
9187;BME280;7273;48.902;9.410;2023-04-16T00:00:23;97892.25;;;8.41;70.20
9187;BME280;7273;48.902;9.410;2023-04-16T00:02:49;97894.66;;;8.38;70.54
9187;BME280;7273;48.902;9.410;2023-04-16T00:05:15;97895.19;;;8.40;69.83
9187;BME280;7273;48.902;9.410;2023-04-16T00:07:40;97896.00;;;8.40;70.01
9187;BME280;7273;48.902;9.410;2023-04-16T00:10:06;97902.22;;;8.41;70.13
9187;BME280;7273;48.902;9.410;2023-04-16T00:12:32;97894.94;;;8.41;69.74
9187;BME280;7273;48.902;9.410;2023-04-16T00:14:58;97903.03;;;8.41;70.37
9187;BME280;7273;48.902;9.410;2023-04-16T00:17:24;97902.22;;;8.41;70.31
9187;BME280;7273;48.902;9.410;2023-04-16T00:19:50;97899.78;;;8.39;70.00
9187;BME280;7273;48.902;9.410;2023-04-16T00:22:15;97903.25;;;8.40;69.76
9187;BME280;7273;48.902;9.410;2023-04-16T00:24:41;97899.22;;;8.37;70.43
9187;BME280;7273;48.902;9.410;2023-04-16T00:27:07;97902.47;;;8.34;70.58
9187;BME280;7273;48.902;9.410;2023-04-16T00:29:32;97899.50;;;8.36;70.22
9187;BME280;7273;48.902;9.410;2023-04-16T00:31:59;97903.53;;;8.33;70.23
9187;BME280;7273;48.902;9.410;2023-04-16T00:34:25;97906.47;;;8.32;70.31
9187;BME280;7273;48.902;9.410;2023-04-16T00:36:50;97901.91;;;8.32;70.92
9187;BME280;7273;48.902;9.410;2023-04-16T00:39:16;97901.91;;;8.32;70.30
9187;BME280;7273;48.902;9.410;2023-04-16T00:41:42;97905.97;;;8.30;71.46
9187;BME280;7273;48.902;9.410;2023-04-16T00:44:08;97904.31;;;8.29;71.50
9187;BME280;7273;48.902;9.410;2023-04-16T00:46:35;97901.63;;;8.29;70.67
9187;BME280;7273;48.902;9.410;2023-04-16T00:49:02;97905.41;;;8.28;71.08
9187;BME280;7273;48.902;9.410;2023-04-16T00:51:28;97909.72;;;8.29;70.69
9187;BME280;7273;48.902;9.410;2023-04-16T00:53:54;97908.09;;;8.28;70.94
9187;BME280;7273;48.902;9.410;2023-04-16T00:56:20;97905.41;;;8.28;70.70
9187;BME280;7273;48.902;9.410;2023-04-16T00:58:48;97906.22;;;8.28;70.33
9187;BME280;7273;48.902;9.410;2023-04-16T01:01:14;97900.84;;;8.28;70.92
9187;BME280;7273;48.902;9.410;2023-04-16T01:03:45;97902.72;;;8.28;70.49
9187;BME280;7273;48.902;9.410;2023-04-16T01:06:11;97901.63;;;8.29;70.79
9187;BME280;7273;48.902;9.410;2023-04-16T01:08:38;97903.00;;;8.26;70.90
9187;BME280;7273;48.902;9.410;2023-04-16T01:11:04;97900.84;;;8.28;70.96
9187;BME280;7273;48.902;9.410;2023-04-16T01:13:30;97903.78;;;8.27;70.64
9187;BME280;7273;48.902;9.410;2023-04-16T01:15:56;97905.16;;;8.29;70.52
9187;BME280;7273;48.902;9.410;2023-04-16T01:18:22;97899.75;;;8.29;70.93
9187;BME280;7273;48.902;9.410;2023-04-16T01:20:49;97905.69;;;8.26;70.95
9187;BME280;7273;48.902;9.410;2023-04-16T01:23:15;97904.31;;;8.29;71.02
9187;BME280;7273;48.902;9.410;2023-04-16T01:25:43;97913.22;;;8.29;70.95
9187;BME280;7273;48.902;9.410;2023-04-16T01:28:09;97911.63;;;8.28;71.38
9187;BME280;7273;48.902;9.410;2023-04-16T01:30:34;97918.34;;;8.26;71.64
9187;BME280;7273;48.902;9.410;2023-04-16T01:33:00;97915.09;;;8.24;71.42
9187;BME280;7273;48.902;9.410;2023-04-16T01:35:26;97913.22;;;8.24;71.27
9187;BME280;7273;48.902;9.410;2023-04-16T01:37:51;97909.69;;;8.24;71.51
9187;BME280;7273;48.902;9.410;2023-04-16T01:40:17;97918.59;;;8.24;70.91
9187;BME280;7273;48.902;9.410;2023-04-16T01:42:43;97915.31;;;8.22;71.55
9187;BME280;7273;48.902;9.410;2023-04-16T01:45:09;97922.63;;;8.22;72.88
9187;BME280;7273;48.902;9.410;2023-04-16T01:47:35;97918.00;;;8.22;71.29
9187;BME280;7273;48.902;9.410;2023-04-16T01:50:00;97916.69;;;8.19;71.46
9187;BME280;7273;48.902;9.410;2023-04-16T01:52:26;97912.63;;;8.22;71.34
9187;BME280;7273;48.902;9.410;2023-04-16T01:54:51;97916.41;;;8.21;71.31
9187;BME280;7273;48.902;9.410;2023-04-16T01:57:16;97915.09;;;8.24;71.58
9187;BME280;7273;48.902;9.410;2023-04-16T01:59:42;97915.31;;;8.22;72.15
9187;BME280;7273;48.902;9.410;2023-04-16T02:02:09;97915.84;;;8.19;71.76
9187;BME280;7273;48.902;9.410;2023-04-16T02:04:39;97922.63;;;8.22;70.94
9187;BME280;7273;48.902;9.410;2023-04-16T02:07:06;97917.22;;;8.22;71.58
9187;BME280;7273;48.902;9.410;2023-04-16T02:09:38;97919.69;;;8.23;72.03
9187;BME280;7273;48.902;9.410;2023-04-16T02:12:04;97914.78;;;8.20;71.71
9187;BME280;7273;48.902;9.410;2023-04-16T02:14:31;97917.22;;;8.22;71.37
9187;BME280;7273;48.902;9.410;2023-04-16T02:16:57;97914.78;;;8.20;71.39
9187;BME280;7273;48.902;9.410;2023-04-16T02:19:22;97911.56;;;8.18;72.17
9187;BME280;7273;48.902;9.410;2023-04-16T02:21:50;97917.22;;;8.16;71.39
9187;BME280;7273;48.902;9.410;2023-04-16T02:24:16;97909.66;;;8.18;71.78
9187;BME280;7273;48.902;9.410;2023-04-16T02:26:41;97915.03;;;8.18;71.99
9187;BME280;7273;48.902;9.410;2023-04-16T02:29:07;97918.81;;;8.17;71.24
9187;BME280;7273;48.902;9.410;2023-04-16T02:31:32;97918.28;;;8.20;71.93
9187;BME280;7273;48.902;9.410;2023-04-16T02:33:58;97916.94;;;8.18;71.22
9187;BME280;7273;48.902;9.410;2023-04-16T02:36:23;97920.41;;;8.18;71.59
9187;BME280;7273;48.902;9.410;2023-04-16T02:38:48;97924.50;;;8.21;71.86
9187;BME280;7273;48.902;9.410;2023-04-16T02:41:14;97920.97;;;8.20;71.58
9187;BME280;7273;48.902;9.410;2023-04-16T02:43:40;97927.75;;;8.23;71.51
9187;BME280;7273;48.902;9.410;2023-04-16T02:46:05;97926.91;;;8.23;71.06
9187;BME280;7273;48.902;9.410;2023-04-16T02:48:31;97929.59;;;8.23;71.40
9187;BME280;7273;48.902;9.410;2023-04-16T02:50:56;97928.00;;;8.22;71.95
9187;BME280;7273;48.902;9.410;2023-04-16T02:53:21;97933.38;;;8.22;71.58
9187;BME280;7273;48.902;9.410;2023-04-16T02:55:51;97932.06;;;8.24;71.21
9187;BME280;7273;48.902;9.410;2023-04-16T02:58:17;97926.91;;;8.23;71.98
9187;BME280;7273;48.902;9.410;2023-04-16T03:00:43;97931.75;;;8.20;71.54
9187;BME280;7273;48.902;9.410;2023-04-16T03:03:09;97934.19;;;8.22;72.02
9187;BME280;7273;48.902;9.410;2023-04-16T03:05:34;97925.53;;;8.20;71.44
9187;BME280;7273;48.902;9.410;2023-04-16T03:07:59;97934.44;;;8.20;71.51
9187;BME280;7273;48.902;9.410;2023-04-16T03:10:25;97931.75;;;8.20;72.20
9187;BME280;7273;48.902;9.410;2023-04-16T03:12:50;97932.00;;;8.19;72.04
9187;BME280;7273;48.902;9.410;2023-04-16T03:15:16;97938.22;;;8.19;72.01
9187;BME280;7273;48.902;9.410;2023-04-16T03:17:41;97939.00;;;8.20;72.04
9187;BME280;7273;48.902;9.410;2023-04-16T03:20:07;97936.59;;;8.18;71.66
9187;BME280;7273;48.902;9.410;2023-04-16T03:22:33;97938.78;;;8.22;71.69
9187;BME280;7273;48.902;9.410;2023-04-16T03:24:58;97941.47;;;8.22;71.68
9187;BME280;7273;48.902;9.410;2023-04-16T03:27:24;97939.00;;;8.20;72.60
9187;BME280;7273;48.902;9.410;2023-04-16T03:29:49;97942.53;;;8.20;71.73
9187;BME280;7273;48.902;9.410;2023-04-16T03:32:15;97944.41;;;8.20;71.86
9187;BME280;7273;48.902;9.410;2023-04-16T03:34:41;97945.22;;;8.20;71.44
9187;BME280;7273;48.902;9.410;2023-04-16T03:37:06;97944.16;;;8.22;71.98
9187;BME280;7273;48.902;9.410;2023-04-16T03:39:36;97943.34;;;8.21;71.85
9187;BME280;7273;48.902;9.410;2023-04-16T03:42:01;97955.72;;;8.22;71.93
9187;BME280;7273;48.902;9.410;2023-04-16T03:44:28;97954.38;;;8.19;71.86
9187;BME280;7273;48.902;9.410;2023-04-16T03:46:53;97948.72;;;8.21;72.17
9187;BME280;7273;48.902;9.410;2023-04-16T03:49:19;97953.28;;;8.20;72.58
9187;BME280;7273;48.902;9.410;2023-04-16T03:51:44;97952.22;;;8.16;72.28
9187;BME280;7273;48.902;9.410;2023-04-16T03:54:10;97955.97;;;8.15;72.75
9187;BME280;7273;48.902;9.410;2023-04-16T03:56:35;97947.88;;;8.15;72.56
9187;BME280;7273;48.902;9.410;2023-04-16T03:59:01;97961.91;;;8.17;71.99
9187;BME280;7273;48.902;9.410;2023-04-16T04:01:26;97954.66;;;8.18;72.11
9187;BME280;7273;48.902;9.410;2023-04-16T04:03:52;97958.41;;;8.17;72.30
9187;BME280;7273;48.902;9.410;2023-04-16T04:06:17;97957.88;;;8.20;71.74
9187;BME280;7273;48.902;9.410;2023-04-16T04:08:42;97960.09;;;8.23;72.06
9187;BME280;7273;48.902;9.410;2023-04-16T04:11:08;97963.81;;;8.22;72.39
9187;BME280;7273;48.902;9.410;2023-04-16T04:13:33;97967.84;;;8.19;71.94
9187;BME280;7273;48.902;9.410;2023-04-16T04:15:58;97966.50;;;8.22;71.80
9187;BME280;7273;48.902;9.410;2023-04-16T04:18:24;97966.22;;;8.18;72.10
9187;BME280;7273;48.902;9.410;2023-04-16T04:20:51;97967.03;;;8.19;72.19
9187;BME280;7273;48.902;9.410;2023-04-16T04:23:16;97972.41;;;8.19;71.76
9187;BME280;7273;48.902;9.410;2023-04-16T04:25:42;97965.94;;;8.20;72.36
9187;BME280;7273;48.902;9.410;2023-04-16T04:28:08;97971.59;;;8.18;72.21
9187;BME280;7273;48.902;9.410;2023-04-16T04:30:33;97975.13;;;8.19;71.67
9187;BME280;7273;48.902;9.410;2023-04-16T04:32:59;97982.63;;;8.17;72.24
9187;BME280;7273;48.902;9.410;2023-04-16T04:35:25;97983.47;;;8.17;72.30
9187;BME280;7273;48.902;9.410;2023-04-16T04:37:50;97980.75;;;8.17;72.13
9187;BME280;7273;48.902;9.410;2023-04-16T04:40:16;97983.19;;;8.19;72.30
9187;BME280;7273;48.902;9.410;2023-04-16T04:42:41;97989.66;;;8.18;71.81
9187;BME280;7273;48.902;9.410;2023-04-16T04:45:07;97992.63;;;8.16;72.17
9187;BME280;7273;48.902;9.410;2023-04-16T04:47:33;97989.09;;;8.16;72.24
9187;BME280;7273;48.902;9.410;2023-04-16T04:49:58;97989.09;;;8.16;72.32
9187;BME280;7273;48.902;9.410;2023-04-16T04:52:24;97994.50;;;8.16;72.37
9187;BME280;7273;48.902;9.410;2023-04-16T04:54:49;98002.31;;;8.17;72.22
9187;BME280;7273;48.902;9.410;2023-04-16T04:57:15;98003.13;;;8.18;71.89
9187;BME280;7273;48.902;9.410;2023-04-16T04:59:40;97998.28;;;8.20;72.17
9187;BME280;7273;48.902;9.410;2023-04-16T05:02:06;98000.97;;;8.20;72.03
9187;BME280;7273;48.902;9.410;2023-04-16T05:04:31;98008.25;;;8.19;72.40
9187;BME280;7273;48.902;9.410;2023-04-16T05:06:57;98006.09;;;8.16;72.91
9187;BME280;7273;48.902;9.410;2023-04-16T05:09:22;98013.66;;;8.19;72.61
9187;BME280;7273;48.902;9.410;2023-04-16T05:11:47;98014.69;;;8.18;72.56
9187;BME280;7273;48.902;9.410;2023-04-16T05:14:13;98025.22;;;8.20;72.58
9187;BME280;7273;48.902;9.410;2023-04-16T05:16:38;98020.09;;;8.18;72.77
9187;BME280;7273;48.902;9.410;2023-04-16T05:19:03;98022.00;;;8.18;72.81
9187;BME280;7273;48.902;9.410;2023-04-16T05:21:29;98029.81;;;8.19;73.17
9187;BME280;7273;48.902;9.410;2023-04-16T05:23:54;98025.22;;;8.20;72.82
9187;BME280;7273;48.902;9.410;2023-04-16T05:26:20;98030.34;;;8.16;72.78
9187;BME280;7273;48.902;9.410;2023-04-16T05:28:47;98038.16;;;8.18;72.65
9187;BME280;7273;48.902;9.410;2023-04-16T05:31:12;98029.50;;;8.16;72.74
9187;BME280;7273;48.902;9.410;2023-04-16T05:33:37;98035.47;;;8.18;72.62
9187;BME280;7273;48.902;9.410;2023-04-16T05:36:03;98039.47;;;8.15;73.34
9187;BME280;7273;48.902;9.410;2023-04-16T05:38:28;98044.31;;;8.18;72.44
9187;BME280;7273;48.902;9.410;2023-04-16T05:40:54;98040.84;;;8.18;72.65
9187;BME280;7273;48.902;9.410;2023-04-16T05:43:20;98041.38;;;8.20;72.82
9187;BME280;7273;48.902;9.410;2023-04-16T05:45:45;98047.56;;;8.20;72.52
9187;BME280;7273;48.902;9.410;2023-04-16T05:48:11;98047.84;;;8.19;72.89
9187;BME280;7273;48.902;9.410;2023-04-16T05:50:37;98048.41;;;8.21;72.28
9187;BME280;7273;48.902;9.410;2023-04-16T05:53:06;98056.22;;;8.23;72.44
9187;BME280;7273;48.902;9.410;2023-04-16T05:55:32;98057.59;;;8.25;72.11
9187;BME280;7273;48.902;9.410;2023-04-16T05:57:58;98054.63;;;8.27;72.47
9187;BME280;7273;48.902;9.410;2023-04-16T06:00:24;98055.44;;;8.27;72.81
9187;BME280;7273;48.902;9.410;2023-04-16T06:02:50;98058.72;;;8.29;72.99
9187;BME280;7273;48.902;9.410;2023-04-16T06:05:15;98062.47;;;8.28;72.67
9187;BME280;7273;48.902;9.410;2023-04-16T06:07:41;98060.31;;;8.30;73.25
9187;BME280;7273;48.902;9.410;2023-04-16T06:10:07;98061.44;;;8.34;72.90
9187;BME280;7273;48.902;9.410;2023-04-16T06:12:33;98059.56;;;8.35;72.51
9187;BME280;7273;48.902;9.410;2023-04-16T06:14:59;98064.38;;;8.33;73.42
9187;BME280;7273;48.902;9.410;2023-04-16T06:17:24;98065.16;;;8.33;73.62
9187;BME280;7273;48.902;9.410;2023-04-16T06:19:49;98063.84;;;8.36;73.28
9187;BME280;7273;48.902;9.410;2023-04-16T06:22:15;98066.28;;;8.37;73.52
9187;BME280;7273;48.902;9.410;2023-04-16T06:24:40;98063.03;;;8.35;73.29
9187;BME280;7273;48.902;9.410;2023-04-16T06:27:06;98060.91;;;8.37;73.17
9187;BME280;7273;48.902;9.410;2023-04-16T06:29:31;98065.72;;;8.35;73.34
9187;BME280;7273;48.902;9.410;2023-04-16T06:31:57;98069.81;;;8.38;73.30
9187;BME280;7273;48.902;9.410;2023-04-16T06:34:22;98067.09;;;8.38;73.42
9187;BME280;7273;48.902;9.410;2023-04-16T06:36:47;98068.97;;;8.37;73.60
9187;BME280;7273;48.902;9.410;2023-04-16T06:39:13;98075.72;;;8.40;73.33
9187;BME280;7273;48.902;9.410;2023-04-16T06:41:38;98082.44;;;8.37;73.18
9187;BME280;7273;48.902;9.410;2023-04-16T06:44:04;98083.28;;;8.38;72.96
9187;BME280;7273;48.902;9.410;2023-04-16T06:46:30;98084.84;;;8.34;74.69
9187;BME280;7273;48.902;9.410;2023-04-16T06:48:56;98082.16;;;8.34;73.47
9187;BME280;7273;48.902;9.410;2023-04-16T06:51:21;98089.19;;;8.35;73.64
9187;BME280;7273;48.902;9.410;2023-04-16T06:53:47;98090.53;;;8.37;73.21
9187;BME280;7273;48.902;9.410;2023-04-16T06:56:13;98090.81;;;8.36;73.51
9187;BME280;7273;48.902;9.410;2023-04-16T06:58:38;98091.63;;;8.36;73.37
9187;BME280;7273;48.902;9.410;2023-04-16T07:01:04;98095.38;;;8.35;73.75
9187;BME280;7273;48.902;9.410;2023-04-16T07:03:29;98094.06;;;8.38;73.44
9187;BME280;7273;48.902;9.410;2023-04-16T07:05:55;98097.53;;;8.38;72.98
9187;BME280;7273;48.902;9.410;2023-04-16T07:08:20;98095.94;;;8.37;72.93
9187;BME280;7273;48.902;9.410;2023-04-16T07:10:46;98101.06;;;8.39;73.11
9187;BME280;7273;48.902;9.410;2023-04-16T07:13:11;98100.78;;;8.40;72.92
9187;BME280;7273;48.902;9.410;2023-04-16T07:15:37;98100.53;;;8.42;73.23
9187;BME280;7273;48.902;9.410;2023-04-16T07:18:02;98100.53;;;8.42;73.01
9187;BME280;7273;48.902;9.410;2023-04-16T07:20:28;98100.25;;;8.43;73.63
9187;BME280;7273;48.902;9.410;2023-04-16T07:22:53;98107.81;;;8.41;73.52
9187;BME280;7273;48.902;9.410;2023-04-16T07:25:19;98107.56;;;8.43;73.06
9187;BME280;7273;48.902;9.410;2023-04-16T07:27:44;98105.13;;;8.41;73.15
9187;BME280;7273;48.902;9.410;2023-04-16T07:30:10;98106.72;;;8.42;73.58
9187;BME280;7273;48.902;9.410;2023-04-16T07:32:36;98115.06;;;8.41;73.52
9187;BME280;7273;48.902;9.410;2023-04-16T07:35:01;98114.81;;;8.42;73.31
9187;BME280;7273;48.902;9.410;2023-04-16T07:37:28;98116.69;;;8.42;73.63
9187;BME280;7273;48.902;9.410;2023-04-16T07:39:53;98128.03;;;8.44;73.08
9187;BME280;7273;48.902;9.410;2023-04-16T07:42:21;98120.22;;;8.42;73.41
9187;BME280;7273;48.902;9.410;2023-04-16T07:44:47;98124.25;;;8.45;73.56
9187;BME280;7273;48.902;9.410;2023-04-16T07:47:12;98128.31;;;8.47;73.61
9187;BME280;7273;48.902;9.410;2023-04-16T07:49:37;98132.34;;;8.45;73.39
9187;BME280;7273;48.902;9.410;2023-04-16T07:52:03;98131.53;;;8.44;73.74
9187;BME280;7273;48.902;9.410;2023-04-16T07:54:28;98135.03;;;8.45;73.47
9187;BME280;7273;48.902;9.410;2023-04-16T07:56:54;98130.75;;;8.49;73.50
9187;BME280;7273;48.902;9.410;2023-04-16T07:59:19;98137.75;;;8.50;73.40
9187;BME280;7273;48.902;9.410;2023-04-16T08:01:45;98138.84;;;8.49;73.42
9187;BME280;7273;48.902;9.410;2023-04-16T08:04:11;98136.97;;;8.49;73.29
9187;BME280;7273;48.902;9.410;2023-04-16T08:06:36;98146.94;;;8.49;73.24
9187;BME280;7273;48.902;9.410;2023-04-16T08:09:01;98144.22;;;8.49;72.83
9187;BME280;7273;48.902;9.410;2023-04-16T08:11:27;98144.53;;;8.52;73.43
9187;BME280;7273;48.902;9.410;2023-04-16T08:13:52;98146.44;;;8.57;73.37
9187;BME280;7273;48.902;9.410;2023-04-16T08:16:18;98146.69;;;8.55;73.00
9187;BME280;7273;48.902;9.410;2023-04-16T08:18:43;98148.03;;;8.58;73.25
9187;BME280;7273;48.902;9.410;2023-04-16T08:21:08;98151.03;;;8.61;73.12
9187;BME280;7273;48.902;9.410;2023-04-16T08:23:34;98152.66;;;8.62;73.07
9187;BME280;7273;48.902;9.410;2023-04-16T08:26:00;98160.75;;;8.62;73.81
9187;BME280;7273;48.902;9.410;2023-04-16T08:28:25;98161.53;;;8.63;73.23
9187;BME280;7273;48.902;9.410;2023-04-16T08:30:51;98163.19;;;8.64;73.20
9187;BME280;7273;48.902;9.410;2023-04-16T08:33:16;98163.19;;;8.64;73.68
9187;BME280;7273;48.902;9.410;2023-04-16T08:35:41;98171.00;;;8.65;73.38
9187;BME280;7273;48.902;9.410;2023-04-16T08:38:07;98169.97;;;8.71;73.77
9187;BME280;7273;48.902;9.410;2023-04-16T08:40:34;98173.75;;;8.70;73.44
9187;BME280;7273;48.902;9.410;2023-04-16T08:43:04;98168.59;;;8.69;73.82
9187;BME280;7273;48.902;9.410;2023-04-16T08:45:33;98173.19;;;8.68;74.34
9187;BME280;7273;48.902;9.410;2023-04-16T08:48:00;98167.81;;;8.73;73.86
9187;BME280;7273;48.902;9.410;2023-04-16T08:50:26;98182.66;;;8.76;73.87
9187;BME280;7273;48.902;9.410;2023-04-16T08:53:13;98176.47;;;8.75;74.10
9187;BME280;7273;48.902;9.410;2023-04-16T08:55:46;98175.63;;;8.75;73.65
9187;BME280;7273;48.902;9.410;2023-04-16T08:58:12;98177.25;;;8.76;73.84
9187;BME280;7273;48.902;9.410;2023-04-16T09:00:39;98179.72;;;8.82;73.95
9187;BME280;7273;48.902;9.410;2023-04-16T09:03:05;98193.75;;;8.84;73.13
9187;BME280;7273;48.902;9.410;2023-04-16T09:05:32;98185.66;;;8.84;73.19
9187;BME280;7273;48.902;9.410;2023-04-16T09:07:57;98184.56;;;8.80;73.11
9187;BME280;7273;48.902;9.410;2023-04-16T09:10:25;98187.28;;;8.80;73.58
9187;BME280;7273;48.902;9.410;2023-04-16T09:12:50;98187.81;;;8.87;73.11
9187;BME280;7273;48.902;9.410;2023-04-16T09:15:16;98194.56;;;8.85;73.90
9187;BME280;7273;48.902;9.410;2023-04-16T09:17:44;98195.38;;;8.80;75.40
9187;BME280;7273;48.902;9.410;2023-04-16T09:20:09;98195.66;;;8.84;75.29
9187;BME280;7273;48.902;9.410;2023-04-16T09:22:35;98207.78;;;8.86;73.99
9187;BME280;7273;48.902;9.410;2023-04-16T09:25:01;98201.06;;;8.84;73.79
9187;BME280;7273;48.902;9.410;2023-04-16T09:27:27;98209.94;;;8.84;73.70
9187;BME280;7273;48.902;9.410;2023-04-16T09:29:52;98205.66;;;8.88;73.57
9187;BME280;7273;48.902;9.410;2023-04-16T09:32:24;98212.91;;;8.88;73.54
9187;BME280;7273;48.902;9.410;2023-04-16T09:34:58;98217.22;;;8.89;73.35
9187;BME280;7273;48.902;9.410;2023-04-16T09:37:28;98209.66;;;8.86;74.04
9187;BME280;7273;48.902;9.410;2023-04-16T09:39:59;98213.19;;;8.86;73.58
9187;BME280;7273;48.902;9.410;2023-04-16T09:42:29;98217.00;;;8.90;73.63
9187;BME280;7273;48.902;9.410;2023-04-16T09:44:56;98217.00;;;8.90;73.94
9187;BME280;7273;48.902;9.410;2023-04-16T09:47:23;98217.75;;;8.86;73.46
9187;BME280;7273;48.902;9.410;2023-04-16T09:49:49;98217.34;;;9.09;73.79
9187;BME280;7273;48.902;9.410;2023-04-16T09:52:18;98224.63;;;9.03;73.09
9187;BME280;7273;48.902;9.410;2023-04-16T09:54:45;98222.16;;;9.02;73.73
9187;BME280;7273;48.902;9.410;2023-04-16T09:57:11;98225.41;;;9.04;73.61
9187;BME280;7273;48.902;9.410;2023-04-16T09:59:36;98230.81;;;9.04;73.53
9187;BME280;7273;48.902;9.410;2023-04-16T10:02:02;98232.41;;;9.00;73.60
9187;BME280;7273;48.902;9.410;2023-04-16T10:04:27;98232.16;;;9.01;73.33
9187;BME280;7273;48.902;9.410;2023-04-16T10:07:04;98231.31;;;9.01;74.40
9187;BME280;7273;48.902;9.410;2023-04-16T10:09:37;98228.63;;;9.01;73.65
9187;BME280;7273;48.902;9.410;2023-04-16T10:12:03;98237.00;;;8.99;73.80
9187;BME280;7273;48.902;9.410;2023-04-16T10:14:28;98242.09;;;8.96;73.66
9187;BME280;7273;48.902;9.410;2023-04-16T10:16:57;98244.22;;;8.94;73.78
9187;BME280;7273;48.902;9.410;2023-04-16T10:19:23;98241.78;;;8.92;73.76
9187;BME280;7273;48.902;9.410;2023-04-16T10:21:49;98238.31;;;8.92;73.63
9187;BME280;7273;48.902;9.410;2023-04-16T10:24:15;98236.94;;;8.89;74.05
9187;BME280;7273;48.902;9.410;2023-04-16T10:26:41;98243.41;;;8.88;73.73
9187;BME280;7273;48.902;9.410;2023-04-16T10:29:08;98243.41;;;8.88;73.94
9187;BME280;7273;48.902;9.410;2023-04-16T10:31:35;98247.41;;;8.86;74.34
9187;BME280;7273;48.902;9.410;2023-04-16T10:34:02;98241.50;;;8.89;73.86
9187;BME280;7273;48.902;9.410;2023-04-16T10:36:27;98240.72;;;8.88;73.87
9187;BME280;7273;48.902;9.410;2023-04-16T10:38:57;98243.94;;;8.85;73.33
9187;BME280;7273;48.902;9.410;2023-04-16T10:41:24;98249.06;;;8.87;73.34
9187;BME280;7273;48.902;9.410;2023-04-16T10:43:51;98252.53;;;8.82;74.03
9187;BME280;7273;48.902;9.410;2023-04-16T10:46:33;98250.69;;;8.88;73.17
9187;BME280;7273;48.902;9.410;2023-04-16T10:49:02;98250.13;;;8.86;74.49
9187;BME280;7273;48.902;9.410;2023-04-16T10:51:36;98259.84;;;8.87;73.85
9187;BME280;7273;48.902;9.410;2023-04-16T10:56:34;98251.50;;;8.88;73.79
9187;BME280;7273;48.902;9.410;2023-04-16T10:59:01;98249.59;;;8.89;74.11
9187;BME280;7273;48.902;9.410;2023-04-16T11:01:33;98248.53;;;8.90;74.09
9187;BME280;7273;48.902;9.410;2023-04-16T11:04:01;98250.69;;;8.88;74.49
9187;BME280;7273;48.902;9.410;2023-04-16T11:14:49;98250.94;;;8.86;73.89
9187;BME280;7273;48.902;9.410;2023-04-16T11:17:14;98257.41;;;8.85;73.97
9187;BME280;7273;48.902;9.410;2023-04-16T11:19:41;98252.03;;;8.85;73.89
9187;BME280;7273;48.902;9.410;2023-04-16T11:22:07;98257.91;;;8.82;74.26
9187;BME280;7273;48.902;9.410;2023-04-16T11:24:33;98258.47;;;8.84;73.78
9187;BME280;7273;48.902;9.410;2023-04-16T11:26:58;98257.69;;;8.84;74.01
9187;BME280;7273;48.902;9.410;2023-04-16T11:29:24;98260.59;;;8.82;74.17
9187;BME280;7273;48.902;9.410;2023-04-16T11:31:50;98263.31;;;8.82;74.16
9187;BME280;7273;48.902;9.410;2023-04-16T11:34:16;98260.63;;;8.87;73.37
9187;BME280;7273;48.902;9.410;2023-04-16T11:36:43;98257.41;;;8.85;74.61
9187;BME280;7273;48.902;9.410;2023-04-16T11:39:08;98259.84;;;8.87;74.83
9187;BME280;7273;48.902;9.410;2023-04-16T11:41:33;98261.16;;;8.84;74.82
9187;BME280;7273;48.902;9.410;2023-04-16T11:43:59;98266.59;;;8.89;74.38
9187;BME280;7273;48.902;9.410;2023-04-16T11:46:45;98266.38;;;8.96;74.97
9187;BME280;7273;48.902;9.410;2023-04-16T11:49:11;98271.50;;;8.97;74.41
9187;BME280;7273;48.902;9.410;2023-04-16T11:51:41;98270.44;;;8.98;73.92
9187;BME280;7273;48.902;9.410;2023-04-16T11:54:07;98262.09;;;9.00;74.08
9187;BME280;7273;48.902;9.410;2023-04-16T11:56:34;98273.66;;;9.00;74.28
9187;BME280;7273;48.902;9.410;2023-04-16T11:59:15;98271.50;;;8.97;74.83
9187;BME280;7273;48.902;9.410;2023-04-16T12:01:48;98269.06;;;8.96;75.04
9187;BME280;7273;48.902;9.410;2023-04-16T12:04:15;98271.50;;;8.97;74.25
9187;BME280;7273;48.902;9.410;2023-04-16T12:07:07;98265.56;;;9.00;74.26
9187;BME280;7273;48.902;9.410;2023-04-16T12:09:33;98268.56;;;9.04;74.56
9187;BME280;7273;48.902;9.410;2023-04-16T12:12:02;98267.78;;;9.03;74.42
9187;BME280;7273;48.902;9.410;2023-04-16T12:14:28;98274.53;;;9.06;75.03
9187;BME280;7273;48.902;9.410;2023-04-16T12:16:55;98276.41;;;9.05;75.19
9187;BME280;7273;48.902;9.410;2023-04-16T12:19:20;98275.06;;;9.08;75.04
9187;BME280;7273;48.902;9.410;2023-04-16T12:21:48;98280.22;;;9.09;74.78
9187;BME280;7273;48.902;9.410;2023-04-16T12:24:15;98276.94;;;9.07;75.42
9187;BME280;7273;48.902;9.410;2023-04-16T12:26:51;98272.41;;;9.13;74.91
9187;BME280;7273;48.902;9.410;2023-04-16T12:29:26;98276.19;;;9.17;74.72
9187;BME280;7273;48.902;9.410;2023-04-16T12:31:54;98273.53;;;9.22;75.01
9187;BME280;7273;48.902;9.410;2023-04-16T12:34:20;98277.03;;;9.22;75.18
9187;BME280;7273;48.902;9.410;2023-04-16T12:36:48;98279.22;;;9.25;74.94
9187;BME280;7273;48.902;9.410;2023-04-16T12:39:14;98277.06;;;9.27;74.58
9187;BME280;7273;48.902;9.410;2023-04-16T12:41:42;98280.81;;;9.26;74.37
9187;BME280;7273;48.902;9.410;2023-04-16T12:44:15;98281.34;;;9.23;74.71
9187;BME280;7273;48.902;9.410;2023-04-16T12:46:41;98282.16;;;9.24;74.67
9187;BME280;7273;48.902;9.410;2023-04-16T12:49:08;98280.28;;;9.24;73.85
9187;BME280;7273;48.902;9.410;2023-04-16T12:51:34;98277.84;;;9.23;74.97
9187;BME280;7273;48.902;9.410;2023-04-16T12:54:01;98277.84;;;9.23;74.55
9187;BME280;7273;48.902;9.410;2023-04-16T12:56:26;98285.97;;;9.23;74.62
9187;BME280;7273;48.902;9.410;2023-04-16T12:58:52;98276.47;;;9.20;74.72
9187;BME280;7273;48.902;9.410;2023-04-16T13:01:18;98276.44;;;9.15;75.35
9187;BME280;7273;48.902;9.410;2023-04-16T13:03:44;98278.63;;;9.18;74.84
9187;BME280;7273;48.902;9.410;2023-04-16T13:06:10;98278.66;;;9.23;74.06
9187;BME280;7273;48.902;9.410;2023-04-16T13:08:36;98279.72;;;9.22;74.32
9187;BME280;7273;48.902;9.410;2023-04-16T13:11:02;98275.44;;;9.21;73.95
9187;BME280;7273;48.902;9.410;2023-04-16T13:13:27;98274.06;;;9.24;74.12
9187;BME280;7273;48.902;9.410;2023-04-16T13:15:53;98276.22;;;9.22;74.37
9187;BME280;7273;48.902;9.410;2023-04-16T13:18:18;98274.91;;;9.24;74.12
9187;BME280;7273;48.902;9.410;2023-04-16T13:20:43;98277.03;;;9.22;74.39
9187;BME280;7273;48.902;9.410;2023-04-16T13:23:09;98277.34;;;9.26;74.67
9187;BME280;7273;48.902;9.410;2023-04-16T13:25:35;98281.63;;;9.27;75.04
9187;BME280;7273;48.902;9.410;2023-04-16T13:28:00;98281.63;;;9.27;74.91
9187;BME280;7273;48.902;9.410;2023-04-16T13:30:26;98279.22;;;9.25;74.38
9187;BME280;7273;48.902;9.410;2023-04-16T13:32:53;98278.91;;;9.22;75.17
9187;BME280;7273;48.902;9.410;2023-04-16T13:35:19;98287.31;;;9.25;75.48
9187;BME280;7273;48.902;9.410;2023-04-16T13:37:44;98281.09;;;9.25;75.27